Terminal Aerodrome Forecast
Issued by NWS

Home | Current Version | Previous Version | Graphics & Text | Print | Product List | Glossary On
Versions: 1 2 3 4 5 6 7 8 9 10 11 12 13 14 15 16 17 18 19 20
537
FTUS43 KOAX 251735
TAFCDR
TAF
KCDR 251735Z 2518/2618 34008KT P6SM SCT150
     FM252200 03015G25KT P6SM -SHRA VCTS SCT080CB OVC100
     FM260400 04012KT P6SM -SHRA SCT030 OVC050
     FM260600 01005KT P6SM BKN100=

USA.gov is the U.S. government's official web portal to all federal, state and local government web resources and services.